Time;durP1;ratioP1;P1;durP2;ratioP2;P2;SDS_P1;SDS_P2;PMS_P1;PMS_P2;Temp;Humidity;BMP_temperature;BMP_pressure;BME280_temperature;BME280_humidity;BME280_pressure;Samples;Min_cycle;Max_cycle;Signal;HPM_P1;HPM_P2
2021/07/17 03:12:40;;;;;;;9.90;7.43;;;;;;;24.95;62.75;99808.66;5310123;26;20076;-86
2021/07/17 03:15:07;;;;;;;9.38;7.75;;;;;;;24.98;62.39;99803.06;5294833;27;158777;-86
2021/07/17 03:17:34;;;;;;;8.27;7.35;;;;;;;24.97;63.03;99804.84;5320138;27;20071;-85
2021/07/17 03:20:01;;;;;;;9.25;8.20;;;;;;;24.78;64.99;99800.00;5299955;27;20120;-86
2021/07/17 03:22:28;;;;;;;11.85;8.27;;;;;;;24.98;64.58;99797.69;5299938;27;20125;-86
2021/07/17 03:24:55;;;;;;;10.60;8.73;;;;;;;25.04;64.53;99794.53;5300583;27;20171;-86
2021/07/17 04:54:21;;;;;;;14.63;10.00;;;;;;;23.84;67.22;99856.00;5309271;26;20076;31
2021/07/17 04:56:49;;;;;;;12.82;7.97;;;;;;;24.32;65.11;99861.56;5321009;27;20052;-85
2021/07/17 04:59:16;;;;;;;11.77;8.63;;;;;;;23.94;65.31;99866.00;5320536;27;20113;-85
2021/07/17 05:53:10;;;;;;;9.77;6.03;;;;;;;24.63;64.85;99956.94;5314977;26;20080;-84
2021/07/17 05:55:41;;;;;;;13.95;9.02;;;;;;;24.55;65.02;99956.63;5300722;27;20049;-84
2021/07/17 05:58:11;;;;;;;9.98;8.20;;;;;;;24.65;65.25;99957.69;5320002;27;20392;-84
2021/07/17 06:00:58;;;;;;;13.57;9.40;;;;;;;24.47;66.63;99975.94;5302965;27;20118;-84
2021/07/17 06:03:25;;;;;;;12.20;9.00;;;;;;;24.13;67.49;99972.06;5319691;27;20040;-85
2021/07/17 06:05:52;;;;;;;13.95;9.57;;;;;;;24.56;65.80;99980.69;5320113;27;20092;-85
2021/07/17 06:08:19;;;;;;;13.35;9.25;;;;;;;24.52;65.83;99968.44;5299862;27;20065;-83
2021/07/17 06:10:46;;;;;;;12.02;8.75;;;;;;;24.45;66.23;99977.91;5319071;27;20065;-83
2021/07/17 06:13:13;;;;;;;12.52;9.27;;;;;;;24.63;65.62;99976.59;5319668;27;20123;-83
2021/07/17 06:15:40;;;;;;;13.25;9.80;;;;;;;24.48;66.42;99978.53;5319946;27;20079;-83
2021/07/17 06:18:07;;;;;;;17.95;12.02;;;;;;;24.57;66.16;99974.34;5319262;27;20061;-84
2021/07/17 06:20:34;;;;;;;14.05;11.38;;;;;;;24.83;66.42;99985.94;5319098;27;20061;-84
2021/07/17 06:23:01;;;;;;;15.82;12.60;;;;;;;24.91;67.00;99997.00;5319037;27;20523;-83
2021/07/17 06:25:28;;;;;;;12.15;10.00;;;;;;;24.92;66.63;99993.31;5319462;27;20056;-84
2021/07/17 06:27:54;;;;;;;14.43;10.63;;;;;;;24.90;66.33;99997.09;5319374;27;20057;-83
2021/07/17 06:30:21;;;;;;;13.65;11.60;;;;;;;24.81;67.10;99989.69;5319523;27;20104;-83
2021/07/17 06:32:48;;;;;;;15.57;12.65;;;;;;;25.28;66.05;99991.66;5319289;27;20094;-84
2021/07/17 06:35:15;;;;;;;15.93;11.12;;;;;;;24.66;68.10;99994.31;5299445;27;20108;-84
2021/07/17 08:23:17;;;;;;;11.88;8.85;;;;;;;24.47;71.28;100059.19;5315423;26;20065;-84
2021/07/17 08:25:44;;;;;;;12.63;9.07;;;;;;;24.86;70.00;100054.72;5319887;27;20067;-84
2021/07/17 08:28:11;;;;;;;12.23;8.63;;;;;;;24.56;69.71;100057.69;5319579;27;20064;-83
2021/07/17 08:30:38;;;;;;;10.95;8.57;;;;;;;23.91;72.21;100066.56;5319714;27;20592;-84
2021/07/17 08:33:06;;;;;;;14.68;8.52;;;;;;;23.91;72.90;100080.81;5320010;27;20491;-83
2021/07/17 08:35:33;;;;;;;12.60;9.20;;;;;;;23.94;73.02;100075.28;5300582;27;20422;-84
2021/07/17 08:38:01;;;;;;;11.77;8.57;;;;;;;24.29;72.89;100071.16;5300215;27;20052;-84
2021/07/17 08:40:28;;;;;;;9.52;8.15;;;;;;;24.26;72.58;100069.53;5319829;27;20104;-86
2021/07/17 08:42:56;;;;;;;10.10;8.48;;;;;;;24.26;71.44;100069.53;5319695;27;20070;-84
2021/07/17 08:45:24;;;;;;;13.55;8.75;;;;;;;24.17;72.66;100057.59;5299762;27;20112;-84
2021/07/17 08:47:54;;;;;;;11.38;9.13;;;;;;;24.04;72.02;100062.09;5319634;27;20111;-84
2021/07/17 08:50:24;;;;;;;10.43;8.70;;;;;;;24.04;72.40;100067.47;5320017;27;20050;-85
2021/07/17 08:52:53;;;;;;;11.85;8.48;;;;;;;24.15;73.07;100059.56;5319793;27;20458;-85
2021/07/17 08:55:20;;;;;;;12.98;7.82;;;;;;;24.31;71.66;100066.56;5319750;27;20437;-85
2021/07/17 08:57:47;;;;;;;11.95;7.60;;;;;;;23.96;72.83;100061.75;5319569;27;20417;-85
2021/07/17 09:00:16;;;;;;;10.25;7.78;;;;;;;24.44;71.04;100056.72;5319578;27;20128;-85
2021/07/17 09:02:54;;;;;;;9.18;7.35;;;;;;;24.66;68.96;100053.41;5301334;27;20082;-85
2021/07/17 09:05:25;;;;;;;10.43;7.07;;;;;;;24.42;69.72;100055.97;5300702;27;20065;-86
2021/07/17 09:07:57;;;;;;;10.43;6.62;;;;;;;24.23;70.26;100059.03;5319942;27;20049;-85
2021/07/17 09:10:34;;;;;;;12.05;7.07;;;;;;;24.43;70.15;100053.19;5320650;27;20111;-85
2021/07/17 09:13:23;;;;;;;9.90;7.07;;;;;;;24.35;68.81;100062.69;5300293;27;20076;-85
2021/07/17 09:15:50;;;;;;;9.40;5.35;;;;;;;24.37;69.22;100060.78;5300622;27;20111;-86
2021/07/17 09:18:25;;;;;;;9.00;6.25;;;;;;;24.34;68.27;100064.53;5319861;27;20110;-85
2021/07/17 09:21:13;;;;;;;9.27;5.97;;;;;;;24.72;67.59;100057.50;5319900;27;20057;-85
2021/07/17 09:23:52;;;;;;;8.43;6.47;;;;;;;24.69;67.41;100061.25;5319615;26;20397;-85
2021/07/17 09:26:22;;;;;;;9.77;6.72;;;;;;;25.18;65.45;100068.59;5319797;27;20100;-85
2021/07/17 09:29:00;;;;;;;7.78;5.85;;;;;;;24.91;67.42;100063.28;5299728;27;20057;-85
2021/07/17 09:31:30;;;;;;;9.63;5.78;;;;;;;25.22;65.38;100072.75;5320087;27;20065;-86
2021/07/17 09:34:05;;;;;;;9.48;5.43;;;;;;;25.00;66.13;100078.78;5319957;27;20106;-85
2021/07/17 09:36:34;;;;;;;10.57;5.53;;;;;;;24.04;68.91;100078.19;5320233;27;20075;-84
2021/07/17 09:39:01;;;;;;;9.57;5.80;;;;;;;23.89;69.11;100081.91;5300383;27;20061;-86
2021/07/17 09:41:28;;;;;;;6.40;5.05;;;;;;;23.96;69.00;100088.59;5321298;27;20709;-85
2021/07/17 09:44:03;;;;;;;7.37;5.18;;;;;;;24.01;69.60;100081.94;5300958;27;20151;-85
2021/07/17 09:46:32;;;;;;;7.07;4.80;;;;;;;23.63;70.60;100083.59;5301561;27;20422;-85
2021/07/17 09:49:02;;;;;;;9.15;5.28;;;;;;;24.79;66.90;100070.38;5321058;27;20434;-85
2021/07/17 09:51:34;;;;;;;7.25;4.75;;;;;;;24.39;66.16;100081.19;5320170;27;20056;-85
2021/07/17 09:54:06;;;;;;;7.30;5.10;;;;;;;23.41;69.94;100082.25;5321800;27;20323;-85
2021/07/17 09:56:35;;;;;;;7.57;5.22;;;;;;;23.92;68.43;100074.50;5302790;27;20064;-86
2021/07/17 09:59:05;;;;;;;11.63;5.40;;;;;;;24.28;68.22;100070.31;5322925;27;20102;-85
2021/07/17 10:01:34;;;;;;;7.15;4.15;;;;;;;25.19;66.59;100070.28;5321897;27;20072;-85
2021/07/17 10:04:05;;;;;;;7.53;4.05;;;;;;;25.97;63.48;100064.59;5321373;27;20025;-86
2021/07/17 10:06:42;;;;;;;5.47;4.03;;;;;;;26.42;62.32;100062.03;5301553;27;20060;-85
2021/07/17 10:09:11;;;;;;;7.62;4.65;;;;;;;26.66;58.72;100059.31;5300550;27;20063;-85
2021/07/17 10:11:43;;;;;;;6.47;5.40;;;;;;;26.84;57.84;100059.69;5301244;27;20091;-86
2021/07/17 10:14:19;;;;;;;6.68;5.07;;;;;;;26.09;61.45;100048.44;5301516;27;20113;-86
2021/07/17 10:16:53;;;;;;;6.10;4.70;;;;;;;26.69;59.81;100048.28;5321368;27;20068;-86
2021/07/17 10:19:23;;;;;;;8.63;5.37;;;;;;;26.56;60.63;100046.66;5322359;27;20067;-86
2021/07/17 10:21:50;;;;;;;6.78;5.28;;;;;;;26.43;60.77;100055.66;5322480;26;20108;-86
2021/07/17 10:24:18;;;;;;;7.07;5.55;;;;;;;26.37;60.28;100056.12;5302409;27;20056;-86
2021/07/17 10:26:48;;;;;;;6.65;4.97;;;;;;;26.76;59.41;100048.66;5322141;27;20160;-86
2021/07/17 10:29:18;;;;;;;6.60;5.07;;;;;;;27.26;59.02;100042.91;5322704;27;20116;-86
2021/07/17 10:52:43;;;;;;;7.97;5.78;;;;;;;28.04;54.90;100014.88;5320677;26;21112;-84
2021/07/17 10:55:36;;;;;;;8.35;6.30;;;;;;;28.35;54.29;100014.94;5309141;27;20105;-86
2021/07/17 10:58:13;;;;;;;5.65;4.95;;;;;;;28.28;54.85;100012.78;5308989;27;20407;-85
2021/07/17 11:00:43;;;;;;;7.80;5.47;;;;;;;28.23;53.68;100011.44;5306756;27;20445;-86
2021/07/17 11:03:29;;;;;;;9.55;6.00;;;;;;;28.23;54.92;100014.16;5327265;27;20125;-85
2021/07/17 11:05:57;;;;;;;7.60;5.82;;;;;;;28.63;54.21;100005.34;5327541;27;20049;-85
2021/07/17 11:08:36;;;;;;;12.90;6.30;;;;;;;28.18;54.01;100000.19;5307208;27;20084;-85
2021/07/17 11:11:28;;;;;;;10.90;5.93;;;;;;;28.70;53.47;100001.94;5305435;27;20449;-84
2021/07/17 11:13:56;;;;;;;6.40;5.65;;;;;;;29.39;51.49;99994.97;5326104;27;20056;-85
2021/07/17 11:16:45;;;;;;;8.63;6.03;;;;;;;29.45;51.54;99999.81;5326479;27;20044;-85
2021/07/17 11:19:29;;;;;;;8.33;6.10;;;;;;;28.96;52.45;99991.53;5327485;27;20889;-85
2021/07/17 11:22:09;;;;;;;7.20;5.68;;;;;;;28.26;54.49;99995.84;5306069;27;20060;-86
2021/07/17 11:24:36;;;;;;;7.28;5.85;;;;;;;29.42;53.16;99986.56;5325015;27;20025;-86
2021/07/17 11:27:12;;;;;;;6.53;5.07;;;;;;;30.08;50.32;99988.59;5322913;27;20057;-85
2021/07/17 11:29:39;;;;;;;6.50;5.20;;;;;;;30.42;49.20;99993.59;5305761;27;20074;-86
2021/07/17 11:32:08;;;;;;;6.12;5.50;;;;;;;29.44;51.90;99984.56;5306969;27;20061;-86
2021/07/17 11:34:39;;;;;;;;;;;;;;;30.16;50.89;99977.06;5324329;27;20067;-86
2021/07/17 11:37:08;;;;;;;7.87;5.93;;;;;;;30.59;49.06;99979.25;5324943;27;19960;-86
2021/07/17 11:39:37;;;;;;;;;;;;;;;29.87;52.11;99975.22;5324227;27;20057;-85
2021/07/17 11:42:06;;;;;;;6.93;4.95;;;;;;;30.23;50.67;99975.50;5302867;27;20391;-85
2021/07/17 11:44:36;;;;;;;6.32;5.03;;;;;;;30.90;48.95;99970.87;5303672;27;20077;-85
2021/07/17 11:47:13;;;;;;;6.57;4.93;;;;;;;31.22;48.57;99973.13;5323900;27;20044;-85
2021/07/17 11:49:43;;;;;;;5.97;4.78;;;;;;;31.21;47.35;99966.84;5325397;27;20077;-86
2021/07/17 11:52:14;;;;;;;7.22;6.12;;;;;;;30.99;47.10;99976.25;5325591;27;20060;-86
2021/07/17 11:54:50;;;;;;;7.37;5.43;;;;;;;30.58;48.76;99982.97;5326294;26;20169;-85
2021/07/17 11:57:23;;;;;;;6.10;5.37;;;;;;;30.35;48.65;99977.03;5306895;27;20041;-87
2021/07/17 12:00:07;;;;;;;5.80;5.00;;;;;;;30.29;48.42;99973.03;5304769;27;20075;-85
2021/07/17 12:02:54;;;;;;;6.32;5.03;;;;;;;30.64;48.38;99970.66;5326117;27;20034;-86
2021/07/17 12:05:22;;;;;;;6.55;5.10;;;;;;;30.57;50.11;99973.13;5305145;27;20061;-86
2021/07/17 12:07:49;;;;;;;6.12;5.53;;;;;;;30.93;48.26;99963.28;5304687;27;20078;-86
2021/07/17 12:10:23;;;;;;;8.65;6.70;;;;;;;31.02;48.19;99961.53;5324594;27;20725;-85
2021/07/17 12:12:57;;;;;;;7.95;5.35;;;;;;;30.84;48.25;99964.19;5305733;27;20032;-85
2021/07/17 12:15:36;;;;;;;6.95;5.40;;;;;;;31.66;48.13;99963.28;5325362;27;20064;-85
2021/07/17 12:18:13;;;;;;;8.23;6.18;;;;;;;31.66;46.16;99954.28;5326605;27;20049;-86
2021/07/17 12:20:45;;;;;;;6.45;5.68;;;;;;;30.28;48.08;99956.94;5326526;27;20082;-86
2021/07/17 12:23:15;;;;;;;6.35;5.70;;;;;;;29.90;50.99;99953.25;5326576;27;20090;-86
2021/07/17 12:25:46;;;;;;;9.43;6.47;;;;;;;30.64;48.98;99947.13;5307465;27;20071;-86
2021/07/17 12:28:15;;;;;;;8.25;6.70;;;;;;;29.65;50.05;99942.03;5328626;27;20363;-86
2021/07/17 13:22:37;;;;;;;12.50;9.52;;;;;;;30.71;49.10;99887.75;5313974;26;20072;-86
2021/07/17 13:25:13;;;;;;;10.20;9.02;;;;;;;30.19;48.70;99881.94;5305673;27;20116;-86
2021/07/17 13:27:41;;;;;;;11.82;9.30;;;;;;;30.24;48.89;99880.53;5325342;27;20061;-87
2021/07/17 13:30:09;;;;;;;10.43;9.18;;;;;;;30.58;50.39;99884.50;5306478;27;20051;-87
2021/07/17 13:33:02;;;;;;;12.23;9.77;;;;;;;30.76;47.23;99875.41;5325137;27;20061;-87
2021/07/17 13:35:30;;;;;;;10.30;8.40;;;;;;;30.67;48.40;99864.63;5325580;27;20622;-86
2021/07/17 13:38:12;;;;;;;10.20;8.53;;;;;;;31.03;47.29;99848.44;5304908;27;20105;-86
2021/07/17 13:40:45;;;;;;;11.65;8.90;;;;;;;31.79;46.37;99846.06;5304615;27;20410;-86
2021/07/17 13:43:15;;;;;;;12.73;8.95;;;;;;;30.87;47.47;99849.97;5304241;27;20065;-86
2021/07/17 13:45:45;;;;;;;10.23;8.82;;;;;;;31.09;47.17;99839.69;5324262;27;20073;-86
2021/07/17 13:48:12;;;;;;;;;;;;;;;31.23;46.27;99834.56;5304414;27;20120;-85
2021/07/17 13:50:45;;;;;;;12.65;9.27;;;;;;;30.89;47.23;99831.69;5324091;27;19960;-86
2021/07/17 13:53:15;;;;;;;10.43;9.35;;;;;;;31.18;46.86;99827.94;5324352;27;20112;-85
2021/07/17 13:55:45;;;;;;;13.77;9.90;;;;;;;30.60;47.29;99837.28;5322829;27;20112;-85
2021/07/17 13:58:11;;;;;;;;;;;;;;;30.63;48.48;99825.28;5322600;27;20655;-86
2021/07/17 14:00:44;;;;;;;12.32;10.68;;;;;;;30.53;49.05;99834.31;5302525;27;20542;-85
2021/07/17 14:03:11;;;;;;;11.35;9.95;;;;;;;30.55;48.46;99824.16;5302608;27;20061;-85
2021/07/17 14:05:38;;;;;;;12.93;10.98;;;;;;;30.89;49.11;99820.84;5302746;27;20087;-86
2021/07/17 14:08:06;;;;;;;12.02;10.70;;;;;;;30.80;48.64;99810.94;5323677;27;20049;-85
2021/07/17 14:10:34;;;;;;;12.30;11.00;;;;;;;31.34;48.50;99808.22;5322637;27;20078;-86
2021/07/17 14:13:02;;;;;;;13.68;11.18;;;;;;;30.92;47.45;99806.97;5322198;27;20076;-86
2021/07/17 14:15:29;;;;;;;12.57;10.95;;;;;;;31.13;47.17;99795.81;5322516;27;20052;-86
2021/07/17 14:17:56;;;;;;;11.60;10.23;;;;;;;31.56;46.98;99796.88;5321870;27;20107;-86
2021/07/17 14:20:23;;;;;;;12.15;10.73;;;;;;;31.56;47.22;99790.56;5321863;27;20084;-86
2021/07/17 14:22:50;;;;;;;12.30;10.80;;;;;;;31.34;47.41;99784.62;5323538;26;20064;-86
2021/07/17 14:25:17;;;;;;;15.30;11.55;;;;;;;31.21;46.93;99790.47;5305244;27;20119;-86
2021/07/17 14:27:45;;;;;;;14.50;11.20;;;;;;;31.00;47.16;99782.66;5326396;27;20136;-86
2021/07/17 14:30:12;;;;;;;14.40;12.18;;;;;;;30.31;48.31;99788.63;5324804;27;20045;-86
2021/07/17 14:32:55;;;;;;;13.05;10.82;;;;;;;30.49;48.33;99792.25;5323584;27;20485;-86
2021/07/17 14:35:23;;;;;;;15.70;11.45;;;;;;;29.98;49.86;99790.91;5302706;27;20124;-86
2021/07/17 14:37:51;;;;;;;13.93;12.52;;;;;;;30.01;50.07;99787.03;5322533;27;20123;-86
2021/07/17 14:40:19;;;;;;;18.85;13.25;;;;;;;30.01;52.11;99785.19;5323542;27;20067;-87
2021/07/17 14:42:46;;;;;;;16.25;13.10;;;;;;;30.16;49.94;99785.53;5302464;27;20060;-86
2021/07/17 14:45:13;;;;;;;14.20;12.65;;;;;;;30.37;49.67;99804.28;5301813;27;20102;-86
2021/07/17 14:47:41;;;;;;;15.60;12.57;;;;;;;30.59;49.20;99807.59;5302150;27;20482;-86
2021/07/17 14:50:09;;;;;;;14.80;12.98;;;;;;;30.18;50.27;99815.19;5322195;27;20141;-86
2021/07/17 14:52:36;;;;;;;17.35;13.93;;;;;;;29.55;51.32;99813.91;5302391;27;20097;-86
2021/07/17 14:55:06;;;;;;;15.00;13.40;;;;;;;29.85;50.88;99817.44;5321383;27;20065;-86
2021/07/17 14:57:33;;;;;;;;;;;;;;;28.95;52.89;99811.34;5322468;27;20813;-86
2021/07/17 15:00:00;;;;;;;14.90;13.30;;;;;;;28.75;53.32;99807.75;5321915;27;19959;-86
2021/07/17 15:02:27;;;;;;;16.15;13.23;;;;;;;29.65;51.02;99806.69;5321989;27;20067;-86
2021/07/17 15:04:55;;;;;;;14.15;11.98;;;;;;;29.34;52.05;99800.56;5302528;27;20087;-84
2021/07/17 15:07:22;;;;;;;14.63;12.82;;;;;;;30.15;50.13;99813.66;5321979;27;20053;-86
2021/07/17 15:09:52;;;;;;;17.02;13.90;;;;;;;30.11;49.98;99804.94;5302302;27;20064;-87
2021/07/17 15:12:20;;;;;;;15.02;12.93;;;;;;;30.22;49.63;99800.38;5321935;27;20057;-85
2021/07/17 15:14:47;;;;;;;15.65;12.15;;;;;;;31.03;48.47;99796.91;5322256;27;20060;-86
2021/07/17 15:17:14;;;;;;;14.27;12.88;;;;;;;30.98;47.69;99800.94;5321612;27;20063;-85
2021/07/17 15:41:44;;;;;;;15.13;13.52;;;;;;;30.25;49.44;99802.78;5314122;26;20057;-85
2021/07/17 15:44:31;;;;;;;16.15;13.10;;;;;;;30.48;48.74;99814.94;5304728;27;20098;-85
2021/07/17 15:46:58;;;;;;;16.48;13.18;;;;;;;30.75;48.01;99811.34;5300686;27;20072;-85
2021/07/17 15:49:25;;;;;;;14.10;12.35;;;;;;;30.19;50.09;99811.50;5321189;27;20106;-86
2021/07/17 15:51:52;;;;;;;13.62;12.23;;;;;;;30.16;49.65;99798.25;5320833;27;20120;-85
2021/07/17 15:54:21;;;;;;;17.83;14.05;;;;;;;30.07;49.46;99798.13;5321468;27;20072;-86
2021/07/17 15:56:48;;;;;;;17.90;13.67;;;;;;;29.81;50.69;99800.63;5302218;27;20057;-87
2021/07/17 15:59:17;;;;;;;15.43;13.50;;;;;;;29.57;51.33;99801.09;5301876;27;20075;-85
2021/07/17 16:01:43;;;;;;;17.13;12.13;;;;;;;29.67;50.78;99801.09;5301633;27;20060;-86
2021/07/17 16:04:11;;;;;;;14.15;12.23;;;;;;;29.65;50.64;99795.00;5321900;27;20044;-86
2021/07/17 16:06:39;;;;;;;15.15;13.20;;;;;;;30.27;49.97;99798.94;5321951;27;20060;-85
2021/07/17 16:09:06;;;;;;;16.17;14.13;;;;;;;29.69;50.47;99801.81;5302126;27;20095;-85
2021/07/17 16:11:33;;;;;;;17.17;13.95;;;;;;;29.31;51.68;99794.59;5302116;27;20663;-85
2021/07/17 16:14:00;;;;;;;18.27;14.80;;;;;;;29.30;51.81;99795.59;5321793;27;20027;-87
2021/07/17 16:16:27;;;;;;;16.00;14.00;;;;;;;28.92;53.46;99791.84;5321503;27;20112;-86
2021/07/17 16:18:54;;;;;;;17.75;14.87;;;;;;;28.82;54.14;99781.00;5321563;27;20070;-86
2021/07/17 16:21:22;;;;;;;17.95;14.15;;;;;;;28.97;53.54;99774.22;5321027;27;20057;-85
2021/07/17 16:23:49;;;;;;;15.50;13.77;;;;;;;28.98;54.02;99780.47;5301014;27;20079;-86
2021/07/17 16:26:17;;;;;;;16.80;13.48;;;;;;;28.80;54.16;99764.09;5321450;27;20060;-85
2021/07/17 16:28:44;;;;;;;16.47;14.67;;;;;;;29.58;52.95;99767.59;5300925;27;20116;-85
2021/07/17 16:31:12;;;;;;;22.15;15.93;;;;;;;29.43;52.91;99766.38;5301061;27;20094;-86
2021/07/17 16:33:39;;;;;;;16.83;15.02;;;;;;;28.89;53.88;99762.41;5321217;27;20100;-87
2021/07/17 16:36:06;;;;;;;17.70;14.55;;;;;;;29.50;52.44;99755.81;5301335;27;20079;-86
2021/07/17 16:38:33;;;;;;;16.48;14.43;;;;;;;28.48;53.35;99746.28;5320695;27;20061;-86
2021/07/17 16:41:00;;;;;;;19.83;17.00;;;;;;;28.31;54.47;99752.31;5319918;27;20056;-86
2021/07/17 16:43:27;;;;;;;18.70;15.70;;;;;;;28.40;54.79;99751.47;5321258;27;20036;-86
2021/07/17 16:45:54;;;;;;;17.20;15.40;;;;;;;28.50;55.46;99751.53;5321656;27;20052;-85
2021/07/17 16:48:21;;;;;;;18.80;16.35;;;;;;;29.08;53.87;99761.56;5320788;27;20383;-85
2021/07/17 16:50:48;;;;;;;23.05;15.77;;;;;;;28.97;54.42;99782.34;5320951;27;20056;-86
2021/07/17 16:53:15;;;;;;;17.98;16.08;;;;;;;28.95;54.41;99800.53;5319376;27;20068;-85
2021/07/17 16:55:43;;;;;;;17.52;15.68;;;;;;;29.20;53.95;99787.47;5321061;27;20060;-85
2021/07/17 16:58:11;;;;;;;17.48;15.50;;;;;;;28.76;54.97;99792.41;5300993;27;20440;-85
2021/07/17 17:00:38;;;;;;;18.25;15.48;;;;;;;29.29;54.08;99815.50;5302254;27;21043;-86
2021/07/17 17:03:05;;;;;;;20.08;17.87;;;;;;;29.22;54.37;99830.63;5321373;27;20052;-86
2021/07/17 17:05:32;;;;;;;18.33;16.33;;;;;;;29.55;53.48;99835.56;5321476;27;20053;-85
2021/07/17 17:08:00;;;;;;;17.42;15.52;;;;;;;28.72;55.59;99853.16;5321430;27;20109;-85
2021/07/17 17:10:27;;;;;;;16.65;10.75;;;;;;;28.30;56.52;99899.19;5320947;27;20102;-84
2021/07/17 17:12:54;;;;;;;11.52;5.10;;;;;;;27.28;55.62;99963.59;5321347;27;20445;-84
2021/07/17 17:15:21;;;;;;;8.38;4.35;;;;;;;25.57;53.99;99970.66;5308128;27;20127;-85
2021/07/17 17:17:48;;;;;;;11.75;4.53;;;;;;;24.97;55.52;99968.78;5310336;27;20065;-85
2021/07/17 17:20:16;;;;;;;7.82;4.78;;;;;;;23.29;64.31;99986.56;5304903;27;20057;-86
2021/07/17 17:22:44;;;;;;;12.00;5.47;;;;;;;23.50;67.81;99981.59;5302938;27;20063;-86
2021/07/17 17:25:15;;;;;;;11.32;4.75;;;;;;;23.35;68.26;100004.91;5303293;27;20061;-85
2021/07/17 17:27:43;;;;;;;8.77;4.40;;;;;;;23.71;65.31;100015.09;5322731;27;20113;-85
2021/07/17 17:30:15;;;;;;;10.30;4.68;;;;;;;24.40;62.39;100013.09;5320850;27;20068;-85
2021/07/17 17:32:51;;;;;;;9.82;5.90;;;;;;;25.06;60.69;100021.91;5300364;27;20102;-86
2021/07/17 17:35:18;;;;;;;8.80;5.62;;;;;;;25.24;60.36;100026.94;5300698;27;20067;-86
2021/07/17 17:37:47;;;;;;;10.45;5.65;;;;;;;25.46;59.53;100036.97;5322200;27;20113;-86
2021/07/17 17:40:15;;;;;;;12.80;6.47;;;;;;;25.52;59.79;100040.06;5322167;27;20115;-86
2021/07/17 17:42:43;;;;;;;10.13;5.05;;;;;;;25.94;58.94;100016.37;5323741;27;20045;-86
2021/07/17 17:45:12;;;;;;;14.35;6.65;;;;;;;25.88;58.91;99997.97;5322655;27;20075;-86
2021/07/17 17:47:39;;;;;;;9.50;5.00;;;;;;;25.91;57.37;99960.03;5301525;27;20075;-86
2021/07/17 17:50:09;;;;;;;9.70;4.90;;;;;;;25.29;59.36;99950.34;5321126;27;20065;-86
2021/07/17 17:52:36;;;;;;;10.40;5.82;;;;;;;25.70;58.77;99934.75;5320731;27;20045;-85
2021/07/17 17:55:05;;;;;;;8.75;5.60;;;;;;;23.57;66.54;99948.09;5320296;27;20057;-85
2021/07/17 17:57:32;;;;;;;8.80;5.55;;;;;;;23.95;65.49;99958.06;5320345;27;20407;-86
2021/07/17 17:59:59;;;;;;;9.48;4.95;;;;;;;24.56;63.68;99936.84;5321190;27;20134;-85
2021/07/17 18:02:39;;;;;;;9.80;6.18;;;;;;;24.98;62.48;99924.00;5320826;27;20410;-85
2021/07/17 18:05:09;;;;;;;8.43;5.47;;;;;;;24.50;63.89;99922.03;5319606;27;20426;-85
2021/07/17 18:07:37;;;;;;;6.78;5.43;;;;;;;24.80;62.65;99910.06;5319792;27;20076;-85
2021/07/17 18:10:05;;;;;;;8.20;5.55;;;;;;;24.95;63.08;99895.50;5319845;27;20067;-86
2021/07/17 18:12:34;;;;;;;8.35;5.75;;;;;;;24.46;65.14;99913.34;5300095;27;20108;-86
2021/07/17 18:15:06;;;;;;;8.02;5.93;;;;;;;24.11;66.59;99915.78;5318797;27;20061;-86
2021/07/17 18:17:34;;;;;;;;;;;;;;;22.93;69.88;99923.66;5301152;27;20511;-86
2021/07/17 18:20:01;;;;;;;10.55;5.50;;;;;;;21.88;74.16;99928.38;5321101;27;20027;-86
2021/07/17 18:22:28;;;;;;;9.65;5.97;;;;;;;22.93;70.79;99909.41;5301653;27;20021;-85
2021/07/17 18:24:55;;;;;;;7.47;5.95;;;;;;;23.37;68.83;99894.94;5321651;27;20072;-85
2021/07/17 18:27:22;;;;;;;9.90;6.60;;;;;;;23.33;68.67;99887.09;5321776;27;20073;-86
2021/07/17 18:29:49;;;;;;;8.13;5.97;;;;;;;23.06;68.95;99904.97;5321343;27;20148;-85
2021/07/17 18:32:16;;;;;;;10.32;6.15;;;;;;;23.30;69.26;99906.06;5321028;27;20052;-87
2021/07/17 18:34:43;;;;;;;7.93;5.35;;;;;;;23.77;67.57;99912.75;5301251;27;20145;-86
2021/07/17 18:37:10;;;;;;;9.13;5.97;;;;;;;23.46;68.64;99923.81;5321304;27;20073;-86
2021/07/17 18:39:38;;;;;;;8.00;4.85;;;;;;;23.29;69.20;99932.94;5300955;27;20159;-85
2021/07/17 18:42:05;;;;;;;9.50;5.65;;;;;;;23.02;69.49;99927.59;5301693;27;20167;-87
2021/07/17 18:44:32;;;;;;;7.30;4.47;;;;;;;23.39;67.26;99935.91;5321519;27;20061;-86
2021/07/17 18:46:59;;;;;;;6.78;4.80;;;;;;;23.17;67.14;99950.69;5321033;27;20323;-87
2021/07/17 18:49:26;;;;;;;9.10;4.87;;;;;;;22.78;70.08;99948.75;5300820;27;20871;-87
2021/07/17 18:51:53;;;;;;;9.25;4.87;;;;;;;23.06;69.37;99943.38;5300393;27;20119;-87
2021/07/17 18:54:21;;;;;;;7.78;5.68;;;;;;;23.35;67.31;99944.16;5320518;27;20072;-87
2021/07/17 18:56:48;;;;;;;9.43;5.37;;;;;;;22.80;69.76;99945.00;5320019;27;20731;-86
2021/07/17 18:59:15;;;;;;;7.22;4.55;;;;;;;22.66;69.10;99934.31;5320416;27;20111;-86
2021/07/17 19:01:42;;;;;;;6.93;4.80;;;;;;;23.06;68.63;99934.44;5320615;27;20821;-86
2021/07/17 19:04:10;;;;;;;6.50;5.03;;;;;;;23.71;66.28;99933.78;5300041;27;20065;-85
2021/07/17 19:06:37;;;;;;;8.10;6.20;;;;;;;23.26;67.87;99943.88;5299968;27;20061;-85
2021/07/17 19:09:03;;;;;;;9.38;5.80;;;;;;;23.14;68.85;99956.25;5319490;27;20084;-86
2021/07/17 19:11:30;;;;;;;9.38;5.22;;;;;;;23.50;67.48;99952.12;5319532;27;20079;-85
2021/07/17 19:13:57;;;;;;;8.55;5.37;;;;;;;23.83;67.37;99953.56;5319181;27;20071;-85
2021/07/17 19:16:26;;;;;;;8.05;5.43;;;;;;;24.01;64.96;99942.41;5319437;27;20385;-85
2021/07/17 19:18:53;;;;;;;11.25;6.20;;;;;;;24.14;63.75;99958.50;5319496;27;20048;-85
2021/07/17 19:21:20;;;;;;;7.18;5.53;;;;;;;24.07;65.35;99954.53;5319261;27;20072;-85
2021/07/17 19:23:47;;;;;;;6.95;5.18;;;;;;;24.08;65.54;99955.41;5300043;27;20061;-85
2021/07/17 19:26:14;;;;;;;8.40;4.97;;;;;;;24.11;66.66;99944.44;5319321;27;20536;-85
2021/07/17 19:28:41;;;;;;;9.98;5.82;;;;;;;24.12;66.75;99933.63;5319171;27;20052;-85
2021/07/17 19:31:08;;;;;;;7.97;5.30;;;;;;;24.42;65.39;99935.13;5320240;27;20072;-85
2021/07/17 19:33:35;;;;;;;7.68;5.18;;;;;;;24.50;64.56;99921.16;5319946;27;20069;-85
2021/07/17 19:36:03;;;;;;;8.70;5.35;;;;;;;24.43;65.00;99923.44;5320242;27;20521;-85
2021/07/17 19:38:29;;;;;;;8.27;5.37;;;;;;;24.67;63.27;99910.06;5321196;27;20069;-85
2021/07/17 19:40:57;;;;;;;7.07;5.40;;;;;;;24.72;62.11;99907.06;5320255;27;20464;-85
2021/07/17 19:43:24;;;;;;;11.30;6.35;;;;;;;24.85;62.83;99907.88;5320129;27;20057;-85
2021/07/17 19:45:53;;;;;;;6.65;4.70;;;;;;;24.88;64.14;99911.22;5300892;27;20065;-85
2021/07/17 19:48:20;;;;;;;20.60;7.18;;;;;;;25.11;62.86;99904.13;5300381;27;20128;-85
2021/07/17 19:50:47;;;;;;;7.40;5.47;;;;;;;25.04;63.49;99885.91;5300829;27;20145;-85
2021/07/17 19:53:14;;;;;;;7.10;5.55;;;;;;;25.19;62.85;99875.88;5319980;27;20394;-85
2021/07/17 19:55:40;;;;;;;7.35;5.03;;;;;;;25.00;64.24;99869.16;5300195;27;20064;-85
2021/07/17 19:58:07;;;;;;;11.05;6.62;;;;;;;25.02;64.08;99861.81;5300610;27;20053;-85
2021/07/17 20:00:34;;;;;;;8.70;6.47;;;;;;;25.07;62.70;99862.34;5300271;27;20070;-84
2021/07/17 20:03:03;;;;;;;9.65;5.70;;;;;;;24.72;63.65;99866.78;5320308;27;20087;-84
2021/07/17 20:05:30;;;;;;;7.55;5.68;;;;;;;24.87;62.89;99854.91;5300646;27;20434;-85
2021/07/17 20:07:57;;;;;;;8.75;6.10;;;;;;;24.73;63.06;99841.63;5300141;27;20061;-85
2021/07/17 20:10:25;;;;;;;8.73;6.15;;;;;;;24.53;64.43;99841.28;5320171;27;20083;-84
2021/07/17 20:12:52;;;;;;;9.35;6.30;;;;;;;24.76;64.02;99831.50;5319880;27;20057;-85
2021/07/17 20:15:20;;;;;;;6.40;5.00;;;;;;;24.52;64.09;99828.78;5320557;27;20068;-84
2021/07/17 20:17:48;;;;;;;8.90;5.97;;;;;;;24.73;63.06;99828.19;5320557;27;20127;-83
2021/07/17 20:20:17;;;;;;;7.82;6.20;;;;;;;24.65;63.63;99821.56;5320552;27;20045;-83
2021/07/17 20:22:45;;;;;;;7.82;5.93;;;;;;;23.82;66.36;99825.72;5300764;27;20061;-84
2021/07/17 20:25:14;;;;;;;8.50;6.03;;;;;;;23.74;66.10;99811.03;5320253;27;20367;-84
2021/07/17 20:27:41;;;;;;;7.90;4.85;;;;;;;23.70;66.60;99809.53;5300682;27;20115;-83